Time;durP1;ratioP1;P1;durP2;ratioP2;P2;SDS_P1;SDS_P2;PMS_P1;PMS_P2;Temp;Humidity;BMP_temperature;BMP_pressure;BME280_temperature;BME280_humidity;BME280_pressure;Samples;Min_cycle;Max_cycle;Signal;HPM_P1;HPM_P2
2023/10/11 00:01:28;;;;;;;18.80;12.88;;;15.60;99.90;;;;;;5036563;28;20121;-55
2023/10/11 00:03:58;;;;;;;25.58;13.55;;;15.60;99.90;;;;;;5036822;28;20117;-49
2023/10/11 00:06:33;;;;;;;22.83;13.20;;;15.60;99.90;;;;;;5036818;28;20049;-54
2023/10/11 00:09:00;;;;;;;18.52;13.40;;;15.50;99.90;;;;;;5035329;28;20416;-53
2023/10/11 00:11:30;;;;;;;23.58;14.07;;;15.50;99.90;;;;;;5037242;28;20064;-52
2023/10/11 00:13:57;;;;;;;20.85;13.05;;;15.50;99.90;;;;;;5036429;28;20120;-50
2023/10/11 00:16:24;;;;;;;19.77;12.85;;;15.50;99.90;;;;;;5036703;28;20563;-52
2023/10/11 00:18:55;;;;;;;22.70;13.95;;;15.50;99.90;;;;;;5036792;28;20085;-48
2023/10/11 00:21:35;;;;;;;21.17;13.32;;;15.50;99.90;;;;;;5036585;28;20041;-52
2023/10/11 00:24:02;;;;;;;19.15;13.35;;;15.50;99.90;;;;;;5036672;28;20485;-53
2023/10/11 00:26:30;;;;;;;23.77;13.82;;;15.50;99.90;;;;;;5035302;28;20041;-52
2023/10/11 00:28:57;;;;;;;24.77;13.30;;;15.50;99.90;;;;;;5036239;28;20060;-54
2023/10/11 00:31:24;;;;;;;19.02;13.07;;;15.40;99.90;;;;;;5035127;28;20041;-50
2023/10/11 00:33:53;;;;;;;21.08;13.93;;;15.40;99.90;;;;;;5036514;28;20117;-55
2023/10/11 00:36:29;;;;;;;26.92;13.50;;;15.40;99.90;;;;;;5034978;28;20041;-55
2023/10/11 00:38:56;;;;;;;21.75;13.48;;;15.40;99.90;;;;;;5035012;28;20132;-58
2023/10/11 00:41:25;;;;;;;20.23;13.60;;;15.40;99.90;;;;;;5035007;28;20068;-52
2023/10/11 00:43:52;;;;;;;23.17;13.43;;;15.40;99.90;;;;;;5036209;28;20054;-56
2023/10/11 00:46:22;;;;;;;26.45;14.15;;;15.40;99.90;;;;;;5034826;28;20048;-58
2023/10/11 00:49:00;;;;;;;25.52;13.95;;;15.40;99.90;;;;;;5035837;28;20033;-52
2023/10/11 00:51:26;;;;;;;20.60;13.98;;;15.40;99.90;;;;;;5035215;28;20042;-56
2023/10/11 00:53:54;;;;;;;26.35;13.88;;;15.40;99.90;;;;;;5035424;28;20048;-55
2023/10/11 00:56:21;;;;;;;25.88;13.55;;;15.40;99.90;;;;;;5034678;28;20487;-54
2023/10/11 00:58:49;;;;;;;22.10;13.43;;;15.40;99.90;;;;;;5035760;28;20127;-52
2023/10/11 01:01:17;;;;;;;22.58;13.40;;;15.40;99.90;;;;;;5035975;28;20416;-54
2023/10/11 01:03:45;;;;;;;20.27;13.75;;;15.40;99.90;;;;;;5034361;28;20045;-52
2023/10/11 01:06:12;;;;;;;23.25;13.77;;;15.40;99.90;;;;;;5035743;28;20045;-50
2023/10/11 01:08:39;;;;;;;26.40;14.30;;;15.40;99.90;;;;;;5034539;28;20038;-53
2023/10/11 01:11:07;;;;;;;22.95;13.98;;;15.50;99.90;;;;;;5035849;28;20125;-58
2023/10/11 01:13:38;;;;;;;27.85;14.35;;;15.40;99.90;;;;;;5035922;28;20056;-49
2023/10/11 01:16:05;;;;;;;24.52;13.90;;;15.40;99.90;;;;;;5035991;28;20042;-57
2023/10/11 01:18:33;;;;;;;25.00;13.20;;;15.50;99.90;;;;;;5035288;28;20072;-52
2023/10/11 01:21:00;;;;;;;25.75;13.30;;;15.50;99.90;;;;;;5035112;28;20053;-55
2023/10/11 01:23:27;;;;;;;23.33;14.70;;;15.50;99.90;;;;;;5035176;28;20046;-57
2023/10/11 01:25:55;;;;;;;23.70;13.48;;;15.50;99.90;;;;;;5035581;28;20111;-55
2023/10/11 01:28:22;;;;;;;24.63;14.32;;;15.50;99.90;;;;;;5035236;28;20037;-53
2023/10/11 01:30:51;;;;;;;19.92;13.00;;;15.50;99.90;;;;;;5035212;28;20046;-51
2023/10/11 01:33:18;;;;;;;23.38;13.45;;;15.50;99.90;;;;;;5035329;28;20053;-54
2023/10/11 01:35:48;;;;;;;21.55;12.50;;;15.60;99.90;;;;;;5034821;28;20037;-49
2023/10/11 01:38:17;;;;;;;21.52;13.75;;;15.60;99.90;;;;;;5034911;28;20113;-53
2023/10/11 01:40:44;;;;;;;23.63;12.35;;;15.60;99.90;;;;;;5034680;28;20041;-54
2023/10/11 01:43:11;;;;;;;27.10;12.48;;;15.70;99.90;;;;;;5035463;28;20045;-54
2023/10/11 01:45:39;;;;;;;23.63;13.07;;;15.70;99.90;;;;;;5035238;28;20045;-54
2023/10/11 01:48:06;;;;;;;22.30;12.15;;;15.80;99.90;;;;;;5034741;28;20112;-57
2023/10/11 01:50:37;;;;;;;20.55;12.50;;;15.80;99.90;;;;;;5033790;28;20136;-49
2023/10/11 01:53:04;;;;;;;19.52;12.40;;;15.80;99.90;;;;;;5034947;28;20129;-53
2023/10/11 01:55:30;;;;;;;18.92;12.30;;;15.90;99.90;;;;;;5034623;28;20490;-54
2023/10/11 01:57:57;;;;;;;23.98;12.70;;;15.90;99.90;;;;;;5034801;28;20037;-52
2023/10/11 02:00:29;;;;;;;21.48;11.60;;;15.90;99.90;;;;;;5033183;28;20041;-52
2023/10/11 02:02:56;;;;;;;21.35;11.65;;;15.90;99.90;;;;;;5033202;28;20113;-55
2023/10/11 02:05:23;;;;;;;26.52;12.90;;;16.00;99.90;;;;;;5034970;28;20063;-52
2023/10/11 02:07:50;;;;;;;19.55;11.48;;;16.00;99.90;;;;;;5034496;28;20103;-53
2023/10/11 02:10:25;;;;;;;18.77;11.02;;;16.00;99.90;;;;;;5033246;28;20038;-55
2023/10/11 02:12:55;;;;;;;22.83;11.23;;;16.00;99.90;;;;;;5034654;28;20087;-47
2023/10/11 02:15:27;;;;;;;26.13;12.43;;;16.10;99.90;;;;;;5033197;28;20041;-50
2023/10/11 02:17:54;;;;;;;23.02;11.63;;;16.10;99.90;;;;;;5033106;28;20107;-53
2023/10/11 02:20:21;;;;;;;21.83;12.50;;;16.10;99.90;;;;;;5033958;28;20385;-52
2023/10/11 02:22:56;;;;;;;22.95;11.40;;;16.10;99.90;;;;;;5033153;28;20041;-53
2023/10/11 02:25:25;;;;;;;20.45;11.40;;;16.20;99.90;;;;;;5034268;28;20044;-48
2023/10/11 02:27:52;;;;;;;25.85;11.85;;;16.20;99.90;;;;;;5032911;28;20053;-55
2023/10/11 02:30:21;;;;;;;20.50;11.60;;;16.10;99.90;;;;;;5034445;28;20053;-56
2023/10/11 02:32:49;;;;;;;22.52;11.77;;;16.20;99.90;;;;;;5034443;28;20045;-51
2023/10/11 02:35:18;;;;;;;21.50;12.02;;;16.20;99.90;;;;;;5034107;28;20033;-52
2023/10/11 02:37:45;;;;;;;23.58;11.77;;;16.20;99.90;;;;;;5033786;28;20069;-55
2023/10/11 02:40:16;;;;;;;21.23;12.45;;;16.20;99.90;;;;;;5032848;28;20048;-53
2023/10/11 02:42:43;;;;;;;26.60;12.43;;;16.20;99.90;;;;;;5034238;28;20160;-51
2023/10/11 02:45:12;;;;;;;17.60;11.57;;;16.20;99.90;;;;;;5034153;28;20099;-57
2023/10/11 02:47:40;;;;;;;22.42;12.15;;;16.20;99.90;;;;;;5032610;28;20461;-56
2023/10/11 02:50:07;;;;;;;19.02;12.77;;;16.20;99.90;;;;;;5032246;28;20488;-55
2023/10/11 02:52:37;;;;;;;27.98;11.95;;;16.20;99.90;;;;;;5033965;28;20061;-57
2023/10/11 02:55:20;;;;;;;20.38;12.27;;;16.20;99.90;;;;;;5033419;28;20077;-56
2023/10/11 02:57:48;;;;;;;22.77;12.75;;;16.20;99.90;;;;;;5032678;28;20049;-56
2023/10/11 03:00:21;;;;;;;21.60;13.40;;;16.20;99.90;;;;;;5033551;28;20121;-54
2023/10/11 03:02:54;;;;;;;18.98;11.85;;;16.20;99.90;;;;;;5032597;28;20076;-50
2023/10/11 03:05:27;;;;;;;21.35;12.43;;;16.20;99.90;;;;;;5031971;28;20057;-52
2023/10/11 03:07:55;;;;;;;20.17;12.30;;;16.20;99.90;;;;;;5032286;28;20053;-47
2023/10/11 03:10:22;;;;;;;22.02;12.40;;;16.20;99.90;;;;;;5032583;28;20037;-54
2023/10/11 03:12:51;;;;;;;21.98;12.15;;;16.20;99.90;;;;;;5032242;28;20051;-55
2023/10/11 03:15:21;;;;;;;20.48;12.48;;;16.20;99.90;;;;;;5032873;28;20377;-51
2023/10/11 03:17:52;;;;;;;19.15;12.27;;;16.10;99.90;;;;;;5033084;28;20042;-55
2023/10/11 03:20:36;;;;;;;24.77;12.82;;;16.10;99.90;;;;;;5033744;28;20045;-56
2023/10/11 03:23:10;;;;;;;23.58;12.48;;;16.00;99.90;;;;;;5033049;28;20053;-59
2023/10/11 03:25:38;;;;;;;23.45;13.00;;;16.00;99.90;;;;;;5033402;28;20049;-55
2023/10/11 03:28:05;;;;;;;20.13;12.55;;;16.00;99.90;;;;;;5033213;28;20077;-48
2023/10/11 03:30:35;;;;;;;27.02;12.43;;;16.00;99.90;;;;;;5033111;28;20404;-53
2023/10/11 03:33:02;;;;;;;24.30;12.85;;;16.00;99.90;;;;;;5033662;28;20179;-53
2023/10/11 03:35:34;;;;;;;23.98;12.73;;;16.00;99.90;;;;;;5033376;28;20403;-54
2023/10/11 03:38:02;;;;;;;18.83;11.60;;;16.00;99.90;;;;;;5032896;28;20098;-53
2023/10/11 03:40:34;;;;;;;24.45;12.70;;;16.10;99.90;;;;;;5032998;28;20052;-49
2023/10/11 03:43:04;;;;;;;23.67;12.63;;;16.10;99.90;;;;;;5032979;28;20046;-51
2023/10/11 03:45:34;;;;;;;21.52;12.00;;;16.10;99.90;;;;;;5033107;28;20481;-53
2023/10/11 03:48:01;;;;;;;26.35;12.48;;;16.10;99.90;;;;;;5033128;28;20376;-60
2023/10/11 03:50:34;;;;;;;21.40;11.23;;;16.20;99.90;;;;;;5032906;28;20124;-57
2023/10/11 03:53:10;;;;;;;18.55;10.93;;;16.20;99.90;;;;;;5033224;28;20037;-50
2023/10/11 03:55:47;;;;;;;19.33;11.90;;;16.30;99.90;;;;;;5032774;28;20037;-57
2023/10/11 03:58:28;;;;;;;20.92;11.25;;;16.30;99.90;;;;;;5033179;28;20128;-54
2023/10/11 04:01:04;;;;;;;19.60;11.32;;;16.30;99.90;;;;;;5033045;28;20052;-54
2023/10/11 04:03:34;;;;;;;19.35;10.27;;;16.40;99.90;;;;;;5033716;28;20095;-54
2023/10/11 04:06:01;;;;;;;15.65;10.25;;;16.40;99.90;;;;;;5033242;28;20358;-55
2023/10/11 04:08:28;;;;;;;19.05;9.52;;;16.40;99.90;;;;;;5032657;28;20124;-59
2023/10/11 04:10:56;;;;;;;18.33;10.05;;;16.50;99.90;;;;;;5032657;28;20041;-57
2023/10/11 04:13:26;;;;;;;22.05;10.55;;;16.50;99.90;;;;;;5032546;28;20116;-57
2023/10/11 04:15:58;;;;;;;16.17;9.05;;;16.50;99.90;;;;;;5032546;28;20038;-58
2023/10/11 04:23:39;;;;;;;16.67;8.88;;;16.60;99.90;;;;;;5032479;28;20071;-53
2023/10/11 04:26:24;;;;;;;18.45;9.50;;;16.60;99.90;;;;;;5033520;28;20068;-52
2023/10/11 04:28:52;;;;;;;21.33;8.95;;;16.60;99.90;;;;;;5034765;28;20045;-55
2023/10/11 04:31:28;;;;;;;18.23;9.30;;;16.60;99.90;;;;;;5035732;28;20048;-56
2023/10/11 04:33:55;;;;;;;23.85;9.45;;;16.70;99.90;;;;;;5035869;28;20037;-57
2023/10/11 04:36:22;;;;;;;17.17;8.77;;;16.70;99.90;;;;;;5036134;28;20060;-57
2023/10/11 04:38:50;;;;;;;15.02;8.95;;;16.70;99.90;;;;;;5035891;28;20481;-58
2023/10/11 04:41:19;;;;;;;16.42;8.52;;;16.80;99.90;;;;;;5035786;28;20038;-56
2023/10/11 04:44:04;;;;;;;18.63;8.82;;;16.80;99.90;;;;;;5035932;28;20095;-56
2023/10/11 04:46:31;;;;;;;14.10;8.30;;;16.80;99.90;;;;;;5036069;28;20075;-58
2023/10/11 04:49:17;;;;;;;18.17;8.60;;;16.80;99.90;;;;;;5035479;28;20038;-56
2023/10/11 04:51:46;;;;;;;17.10;9.13;;;16.80;99.90;;;;;;5036265;28;20096;-57
2023/10/11 04:54:18;;;;;;;18.17;8.20;;;16.90;99.90;;;;;;5034326;28;20571;-51
2023/10/11 04:59:16;;;;;;;15.35;8.48;;;16.80;99.90;;;;;;5035424;28;20049;-53
2023/10/11 05:04:15;;;;;;;19.08;7.72;;;16.90;99.90;;;;;;5035381;28;20089;-54
2023/10/11 05:06:43;;;;;;;15.35;8.07;;;16.90;99.90;;;;;;5035192;28;20045;-60
2023/10/11 05:12:07;;;;;;;15.68;8.05;;;16.90;99.90;;;;;;5035366;28;20473;-54
2023/10/11 05:14:40;;;;;;;14.27;8.38;;;16.90;99.90;;;;;;5033827;28;20045;-55
2023/10/11 05:19:44;;;;;;;15.38;7.78;;;16.90;99.90;;;;;;5035237;28;20056;-57
2023/10/11 05:22:18;;;;;;;15.02;8.02;;;17.00;99.90;;;;;;5035502;28;20045;-58
2023/10/11 05:32:32;;;;;;;14.68;8.55;;;17.00;99.90;;;;;;5034851;28;20045;-51
2023/10/11 05:51:32;;;;;;;22.48;8.07;;;17.00;99.90;;;;;;5054107;28;20147;-53
2023/10/11 05:53:59;;;;;;;14.80;7.57;;;17.00;99.90;;;;;;5052919;28;20144;-56
2023/10/11 05:56:33;;;;;;;18.42;7.35;;;17.10;99.90;;;;;;5054165;28;20127;-57
2023/10/11 05:59:04;;;;;;;13.80;7.60;;;17.10;99.90;;;;;;5053829;28;20412;-50
2023/10/11 06:01:31;;;;;;;16.58;7.18;;;17.10;99.90;;;;;;5054061;28;20564;-57
2023/10/11 06:04:03;;;;;;;18.30;7.35;;;17.10;99.90;;;;;;5053636;28;20078;-51
2023/10/11 06:06:45;;;;;;;17.45;8.73;;;17.10;99.90;;;;;;5053985;28;20048;-51
2023/10/11 06:09:22;;;;;;;25.52;8.75;;;17.10;99.90;;;;;;5053268;28;20117;-56
2023/10/11 06:11:52;;;;;;;18.00;8.02;;;17.10;99.90;;;;;;5014287;28;20038;-55
2023/10/11 06:14:20;;;;;;;18.95;8.30;;;17.20;99.90;;;;;;5027668;28;20502;-54
2023/10/11 06:16:55;;;;;;;19.15;8.02;;;17.10;99.90;;;;;;5033817;28;20041;-54
2023/10/11 06:19:27;;;;;;;19.00;8.15;;;17.10;99.90;;;;;;5033715;28;20041;-51
2023/10/11 06:21:57;;;;;;;16.88;7.47;;;17.10;99.90;;;;;;5031590;28;20045;-51
2023/10/11 06:24:24;;;;;;;18.88;8.38;;;17.10;99.90;;;;;;5031762;28;20642;-55
2023/10/11 06:26:56;;;;;;;20.23;8.38;;;17.10;99.90;;;;;;5012569;28;20042;-55
2023/10/11 06:29:24;;;;;;;20.13;8.32;;;17.10;99.90;;;;;;5027024;28;20042;-55
2023/10/11 06:31:52;;;;;;;19.00;8.57;;;17.20;99.90;;;;;;5033600;28;20048;-50
2023/10/11 06:34:35;;;;;;;22.80;9.52;;;17.20;99.90;;;;;;5033322;28;20037;-49
2023/10/11 06:37:02;;;;;;;17.67;8.35;;;17.20;99.90;;;;;;5033131;28;20189;-53
2023/10/11 06:42:17;;;;;;;17.02;8.77;;;17.30;99.90;;;;;;5030477;28;20035;-54
2023/10/11 06:44:47;;;;;;;22.73;8.57;;;17.30;99.90;;;;;;5033145;28;20121;-53
2023/10/11 06:47:14;;;;;;;16.35;8.07;;;17.30;99.90;;;;;;5032945;28;20033;-48
2023/10/11 06:49:44;;;;;;;23.65;8.48;;;17.30;99.90;;;;;;5033045;28;20489;-53
2023/10/11 06:52:11;;;;;;;18.88;8.00;;;17.30;99.90;;;;;;5033069;28;20048;-53
2023/10/11 06:54:38;;;;;;;16.85;7.40;;;17.40;99.90;;;;;;5026583;28;20106;-54
2023/10/11 06:57:07;;;;;;;17.10;7.53;;;17.40;99.90;;;;;;5032834;28;20033;-52
2023/10/11 06:59:34;;;;;;;18.67;8.43;;;17.40;99.90;;;;;;5033111;28;20116;-56
2023/10/11 07:02:01;;;;;;;15.60;7.78;;;17.50;99.90;;;;;;5033151;28;20034;-54
2023/10/11 07:04:36;;;;;;;19.88;7.60;;;17.50;99.90;;;;;;5043261;28;20510;-54
2023/10/11 07:07:07;;;;;;;15.05;7.68;;;17.60;99.90;;;;;;5052604;28;20379;-54
2023/10/11 07:09:39;;;;;;;20.75;8.15;;;17.60;99.90;;;;;;5035446;28;20125;-55
2023/10/11 07:14:51;;;;;;;19.92;8.00;;;17.60;99.90;;;;;;5031398;28;20041;-52
2023/10/11 07:17:18;;;;;;;15.38;7.63;;;17.70;99.90;;;;;;5029812;28;20037;-54
2023/10/11 07:19:50;;;;;;;17.35;7.93;;;17.70;99.90;;;;;;5032770;28;20037;-57
2023/10/11 07:22:25;;;;;;;17.95;8.15;;;17.80;99.90;;;;;;5031796;28;20034;-57
2023/10/11 07:24:55;;;;;;;18.50;7.93;;;17.70;99.90;;;;;;5030962;28;20060;-53
2023/10/11 07:27:37;;;;;;;16.13;7.57;;;17.80;99.90;;;;;;5032421;28;20492;-54
2023/10/11 07:30:06;;;;;;;16.33;7.68;;;17.80;99.90;;;;;;5031697;28;20033;-52
2023/10/11 07:32:36;;;;;;;20.73;8.43;;;17.80;99.90;;;;;;5031653;28;20046;-53
2023/10/11 07:35:09;;;;;;;17.77;8.27;;;17.80;99.90;;;;;;5031621;28;20100;-54
2023/10/11 07:37:39;;;;;;;17.38;8.75;;;17.90;99.90;;;;;;5031855;28;20049;-52
2023/10/11 07:40:12;;;;;;;16.45;8.25;;;17.90;99.90;;;;;;5031518;28;20046;-52
2023/10/11 07:42:39;;;;;;;18.27;8.48;;;17.90;99.90;;;;;;5031892;28;20555;-51
2023/10/11 07:45:12;;;;;;;18.88;8.05;;;18.00;99.90;;;;;;5033064;28;20045;-54
2023/10/11 07:47:45;;;;;;;20.05;8.43;;;18.00;99.90;;;;;;5032939;28;20064;-55
2023/10/11 07:50:22;;;;;;;21.08;9.25;;;18.00;99.90;;;;;;5033075;28;20439;-53
2023/10/11 07:52:49;;;;;;;16.80;8.68;;;18.00;99.90;;;;;;5032823;28;20485;-56
2023/10/11 07:55:17;;;;;;;18.10;9.27;;;18.10;99.90;;;;;;5032635;28;20401;-51
2023/10/11 07:57:44;;;;;;;21.77;9.85;;;18.10;99.90;;;;;;5032658;28;20120;-49
2023/10/11 08:00:17;;;;;;;23.63;9.52;;;18.20;99.90;;;;;;5032907;28;20072;-53
2023/10/11 08:02:55;;;;;;;22.33;9.65;;;18.20;99.90;;;;;;5035963;28;20103;-52
2023/10/11 08:05:25;;;;;;;17.58;9.30;;;18.20;99.90;;;;;;5036717;28;20077;-55
2023/10/11 08:07:55;;;;;;;18.27;9.18;;;18.20;99.90;;;;;;5036518;28;20464;-55
2023/10/11 08:10:34;;;;;;;17.60;9.27;;;18.20;99.90;;;;;;5036111;28;20045;-58
2023/10/11 08:13:01;;;;;;;14.98;9.52;;;18.20;99.90;;;;;;5036744;28;20037;-55
2023/10/11 08:15:27;;;;;;;18.10;9.40;;;18.30;99.90;;;;;;5036502;28;20084;-56
2023/10/11 08:17:54;;;;;;;18.60;9.50;;;18.30;99.90;;;;;;5036221;28;20128;-56
2023/10/11 08:20:28;;;;;;;19.83;8.98;;;18.20;99.90;;;;;;5036483;28;20105;-51
2023/10/11 08:22:56;;;;;;;15.00;8.88;;;18.20;99.90;;;;;;5036559;28;20412;-58
2023/10/11 08:25:28;;;;;;;19.50;8.13;;;18.30;99.90;;;;;;5034897;28;20638;-55
2023/10/11 08:30:56;;;;;;;15.50;8.45;;;18.30;99.90;;;;;;5039366;28;20060;-56
2023/10/11 08:33:23;;;;;;;19.95;8.27;;;18.30;99.90;;;;;;5035931;28;20200;-52
2023/10/11 08:35:53;;;;;;;18.88;8.07;;;18.30;99.90;;;;;;5034465;28;20117;-55
2023/10/11 08:38:20;;;;;;;17.67;8.38;;;18.30;99.90;;;;;;5035960;28;20041;-51
2023/10/11 08:40:50;;;;;;;17.42;7.85;;;18.40;99.90;;;;;;5036067;28;20037;-52
2023/10/11 08:43:17;;;;;;;18.83;7.55;;;18.40;99.90;;;;;;5035995;28;20056;-51
2023/10/11 08:45:44;;;;;;;14.32;6.97;;;18.60;99.90;;;;;;5035809;28;20071;-54
2023/10/11 08:48:11;;;;;;;16.38;6.85;;;18.60;99.90;;;;;;5035659;28;20125;-56
2023/10/11 08:50:38;;;;;;;12.93;6.90;;;18.70;99.90;;;;;;5034892;28;20044;-56
2023/10/11 08:53:07;;;;;;;15.70;7.10;;;18.70;99.90;;;;;;5035872;28;20520;-52
2023/10/11 08:55:35;;;;;;;12.50;6.43;;;18.80;99.90;;;;;;5035455;28;20049;-54
2023/10/11 08:58:05;;;;;;;13.90;6.80;;;18.80;99.90;;;;;;5035615;28;20041;-53
2023/10/11 09:00:33;;;;;;;17.13;6.82;;;18.80;99.90;;;;;;5035401;28;20072;-53
2023/10/11 09:03:03;;;;;;;13.35;5.88;;;18.90;99.90;;;;;;5035512;28;20042;-54
2023/10/11 09:05:32;;;;;;;14.18;6.05;;;18.90;99.90;;;;;;5034297;28;20045;-58
2023/10/11 09:08:04;;;;;;;10.30;6.00;;;18.90;99.90;;;;;;5035357;28;20037;-53
2023/10/11 09:10:34;;;;;;;15.00;6.70;;;19.00;99.90;;;;;;5035680;28;20128;-54
2023/10/11 09:13:02;;;;;;;15.85;6.45;;;19.10;99.90;;;;;;5034321;28;20042;-55
2023/10/11 09:15:30;;;;;;;13.68;6.47;;;19.10;99.90;;;;;;5035158;28;20120;-56
2023/10/11 09:17:56;;;;;;;13.07;6.60;;;19.10;99.90;;;;;;5035224;28;20128;-57
2023/10/11 09:20:23;;;;;;;13.45;6.32;;;19.10;99.90;;;;;;5035202;28;20114;-53
2023/10/11 09:22:55;;;;;;;11.43;6.50;;;19.20;99.90;;;;;;5034952;28;20045;-55
2023/10/11 09:25:33;;;;;;;11.88;6.45;;;19.10;99.90;;;;;;5035055;28;20108;-57
2023/10/11 09:28:00;;;;;;;16.35;7.20;;;19.20;99.90;;;;;;5035376;28;20099;-54
2023/10/11 09:30:27;;;;;;;14.85;7.88;;;19.20;99.90;;;;;;5035102;28;20044;-59
2023/10/11 09:32:59;;;;;;;14.43;7.68;;;19.20;99.90;;;;;;5035154;28;20049;-55
2023/10/11 09:35:26;;;;;;;12.43;6.43;;;19.20;99.90;;;;;;5035182;28;20045;-56
2023/10/11 09:37:54;;;;;;;16.45;7.63;;;19.20;99.90;;;;;;5035106;28;20087;-54
2023/10/11 09:40:25;;;;;;;17.52;6.80;;;19.20;99.90;;;;;;5034798;28;20124;-56
2023/10/11 09:42:52;;;;;;;14.65;6.88;;;19.20;99.90;;;;;;5034754;28;20492;-49
2023/10/11 09:45:22;;;;;;;12.35;6.38;;;19.30;99.90;;;;;;5033380;28;20128;-54
2023/10/11 09:47:54;;;;;;;12.65;6.65;;;19.30;99.90;;;;;;5034640;28;20408;-53
2023/10/11 09:50:23;;;;;;;10.73;5.80;;;19.30;99.90;;;;;;5034285;28;20033;-54
2023/10/11 09:52:50;;;;;;;11.48;5.95;;;19.40;99.90;;;;;;5034615;28;20473;-53
2023/10/11 09:55:17;;;;;;;12.48;5.85;;;19.40;99.90;;;;;;5034205;28;20083;-51
2023/10/11 09:57:50;;;;;;;12.35;5.90;;;19.40;99.90;;;;;;5034477;28;20041;-51
2023/10/11 10:00:18;;;;;;;11.70;5.50;;;19.50;99.90;;;;;;5034975;28;20041;-49
2023/10/11 10:02:46;;;;;;;12.48;5.68;;;19.50;99.90;;;;;;5034718;28;20038;-52
2023/10/11 10:05:14;;;;;;;12.45;5.53;;;19.50;99.90;;;;;;5034226;28;20084;-54
2023/10/11 10:10:07;;;;;;;9.35;4.20;;;19.70;99.90;;;;;;5034539;28;20116;-55
2023/10/11 10:12:40;;;;;;;10.60;4.57;;;19.70;99.90;;;;;;5034309;28;20069;-56
2023/10/11 10:15:13;;;;;;;9.13;4.68;;;19.90;99.90;;;;;;5033886;28;20041;-57
2023/10/11 10:17:42;;;;;;;13.40;5.63;;;19.80;99.90;;;;;;5034087;28;20500;-57
2023/10/11 10:20:09;;;;;;;12.82;5.50;;;19.80;99.90;;;;;;5032866;28;20043;-56
2023/10/11 10:22:37;;;;;;;12.55;5.65;;;19.80;99.90;;;;;;5034034;28;20045;-56
2023/10/11 10:25:07;;;;;;;12.38;5.53;;;19.80;99.90;;;;;;5033539;28;20099;-55
2023/10/11 10:27:34;;;;;;;12.77;4.97;;;19.90;99.90;;;;;;5033764;28;20037;-52
2023/10/11 10:30:03;;;;;;;11.07;5.60;;;19.90;99.90;;;;;;5033714;28;20124;-55
2023/10/11 10:32:30;;;;;;;11.27;5.32;;;19.90;99.90;;;;;;5033642;28;20044;-53
2023/10/11 10:34:57;;;;;;;15.02;6.03;;;19.90;99.90;;;;;;5033804;28;20099;-55
2023/10/11 10:37:23;;;;;;;14.07;5.60;;;20.00;99.90;;;;;;5031878;28;20049;-55
2023/10/11 10:39:50;;;;;;;16.70;5.60;;;20.00;99.90;;;;;;5033331;28;20041;-56
2023/10/11 10:42:17;;;;;;;12.63;5.88;;;20.00;99.90;;;;;;5033822;28;20045;-55
2023/10/11 10:44:49;;;;;;;11.85;5.82;;;20.00;99.90;;;;;;5033984;28;20046;-52
2023/10/11 10:47:17;;;;;;;11.30;5.18;;;20.00;99.90;;;;;;5033157;28;20064;-55
2023/10/11 10:49:47;;;;;;;12.90;5.68;;;20.00;99.90;;;;;;5033454;28;20068;-57
2023/10/11 10:52:16;;;;;;;12.00;5.32;;;20.00;99.90;;;;;;5033622;28;20045;-57
2023/10/11 10:54:43;;;;;;;12.18;5.35;;;20.00;99.90;;;;;;5033166;28;20068;-55
2023/10/11 10:57:09;;;;;;;11.85;5.47;;;20.00;99.90;;;;;;5033801;28;20120;-55
2023/10/11 10:59:42;;;;;;;10.30;5.40;;;20.10;99.90;;;;;;5032009;28;20042;-56
2023/10/11 11:02:09;;;;;;;14.88;5.15;;;20.10;99.90;;;;;;5033367;28;20447;-57
2023/10/11 11:04:36;;;;;;;16.00;5.78;;;20.20;99.90;;;;;;5033366;28;20045;-55
2023/10/11 11:07:04;;;;;;;16.00;5.45;;;20.30;99.90;;;;;;5031523;28;20449;-50
2023/10/11 11:09:31;;;;;;;10.43;5.93;;;20.40;99.90;;;;;;5033058;28;20063;-53
2023/10/11 11:12:04;;;;;;;14.73;5.57;;;20.40;99.90;;;;;;5033133;28;20380;-53
2023/10/11 11:14:31;;;;;;;19.33;5.90;;;20.50;99.90;;;;;;5033033;28;20037;-53
2023/10/11 11:16:58;;;;;;;16.48;6.10;;;20.50;99.90;;;;;;5033210;28;20092;-56
2023/10/11 11:19:34;;;;;;;10.68;4.90;;;20.60;99.90;;;;;;5032806;28;20447;-54
2023/10/11 11:22:01;;;;;;;15.63;5.60;;;20.60;99.90;;;;;;5031789;28;20049;-57
2023/10/11 11:24:34;;;;;;;14.27;5.82;;;20.60;99.90;;;;;;5033192;28;20095;-54
2023/10/11 11:27:01;;;;;;;19.83;6.18;;;20.60;99.90;;;;;;5033123;28;20061;-56
2023/10/11 11:29:31;;;;;;;16.50;6.07;;;20.50;99.90;;;;;;5033122;28;20044;-57
2023/10/11 11:32:17;;;;;;;13.95;5.80;;;20.50;99.90;;;;;;5033129;28;20045;-56
2023/10/11 11:34:44;;;;;;;20.38;6.32;;;20.40;99.90;;;;;;5033602;28;20092;-56
2023/10/11 11:37:11;;;;;;;13.45;5.70;;;20.40;99.90;;;;;;5035574;28;20492;-54
2023/10/11 11:39:42;;;;;;;17.02;6.50;;;20.40;99.90;;;;;;5037157;28;20080;-50
2023/10/11 11:42:24;;;;;;;16.33;6.85;;;20.40;99.90;;;;;;5036377;28;20186;-50
2023/10/11 11:44:51;;;;;;;18.35;7.00;;;20.50;99.90;;;;;;5037314;28;20049;-55
2023/10/11 11:47:21;;;;;;;28.40;7.97;;;20.50;99.90;;;;;;5037592;28;20049;-52
2023/10/11 11:49:53;;;;;;;18.65;7.28;;;20.50;99.90;;;;;;5037259;28;20469;-56
2023/10/11 11:52:21;;;;;;;19.98;7.07;;;20.40;99.90;;;;;;5037072;28;20041;-55
2023/10/11 11:54:48;;;;;;;17.58;6.82;;;20.40;99.90;;;;;;5036886;28;20046;-53
2023/10/11 11:57:15;;;;;;;23.63;7.35;;;20.40;99.90;;;;;;5036310;28;20034;-51
2023/10/11 11:59:43;;;;;;;25.67;7.45;;;20.60;99.90;;;;;;5036996;28;20084;-55
2023/10/11 12:02:16;;;;;;;20.77;7.88;;;20.60;99.90;;;;;;5037226;28;20037;-51
2023/10/11 12:04:44;;;;;;;25.27;7.68;;;20.70;99.90;;;;;;5035908;28;20050;-55
2023/10/11 12:07:11;;;;;;;29.63;7.90;;;20.80;99.90;;;;;;5037004;28;20042;-57
2023/10/11 12:09:38;;;;;;;21.85;8.30;;;20.90;99.90;;;;;;5035513;28;20050;-56
2023/10/11 12:12:25;;;;;;;21.75;8.32;;;20.90;99.90;;;;;;5036761;28;20045;-54
2023/10/11 12:14:53;;;;;;;23.92;7.53;;;21.00;99.90;;;;;;5036851;28;20038;-57
2023/10/11 12:17:19;;;;;;;22.90;9.10;;;21.10;99.90;;;;;;5036674;28;20120;-54
2023/10/11 12:19:53;;;;;;;23.40;8.15;;;21.10;99.90;;;;;;5036552;28;20041;-57
2023/10/11 12:22:22;;;;;;;25.88;8.35;;;21.10;99.90;;;;;;5036639;28;20050;-55
2023/10/11 12:24:49;;;;;;;24.48;7.63;;;21.20;99.90;;;;;;5036688;28;20047;-52
2023/10/11 12:27:16;;;;;;;23.00;7.97;;;21.20;99.90;;;;;;5036742;28;20052;-59
2023/10/11 12:29:44;;;;;;;22.33;7.72;;;21.20;99.90;;;;;;5036585;28;20481;-54
2023/10/11 12:32:33;;;;;;;26.00;8.27;;;21.30;99.90;;;;;;5036690;28;20034;-55
2023/10/11 12:35:04;;;;;;;28.65;8.35;;;21.30;99.90;;;;;;5036481;28;20350;-58
2023/10/11 12:37:33;;;;;;;31.20;8.73;;;21.30;99.90;;;;;;5036388;28;20117;-55
2023/10/11 12:40:00;;;;;;;29.00;8.65;;;21.30;99.90;;;;;;5036088;28;20034;-56
2023/10/11 12:42:27;;;;;;;31.83;7.63;;;21.20;99.90;;;;;;5035993;28;20045;-56
2023/10/11 12:44:54;;;;;;;23.73;7.88;;;21.10;99.90;;;;;;5036556;28;20037;-57
2023/10/11 12:47:20;;;;;;;25.33;8.07;;;21.10;99.90;;;;;;5035949;28;20095;-57
2023/10/11 12:49:47;;;;;;;25.85;8.10;;;21.10;99.90;;;;;;5036520;28;20481;-57
2023/10/11 12:52:18;;;;;;;28.30;7.68;;;21.10;99.90;;;;;;5035978;28;20076;-58
2023/10/11 12:54:45;;;;;;;24.85;7.93;;;21.10;99.90;;;;;;5035804;28;20049;-54
2023/10/11 12:57:15;;;;;;;27.10;8.25;;;21.10;99.90;;;;;;5036049;28;20116;-54
2023/10/11 12:59:42;;;;;;;24.95;8.30;;;21.10;99.90;;;;;;5035853;28;20056;-55
2023/10/11 13:02:12;;;;;;;23.50;7.97;;;21.10;99.90;;;;;;5035775;28;20060;-52
2023/10/11 13:04:42;;;;;;;35.50;8.63;;;21.10;99.90;;;;;;5034518;28;20396;-52
2023/10/11 13:07:13;;;;;;;27.27;8.35;;;21.10;99.90;;;;;;5035608;28;20095;-57
2023/10/11 13:09:40;;;;;;;25.58;7.72;;;21.20;99.90;;;;;;5036037;28;20069;-56
2023/10/11 13:12:08;;;;;;;26.63;7.90;;;21.20;99.90;;;;;;5035791;28;20042;-54
2023/10/11 13:14:38;;;;;;;28.17;8.05;;;21.30;99.90;;;;;;5035394;28;20048;-56
2023/10/11 13:17:08;;;;;;;31.08;8.18;;;21.30;99.90;;;;;;5035464;28;20099;-57
2023/10/11 13:19:35;;;;;;;34.63;8.40;;;21.20;99.90;;;;;;5035558;28;20496;-55
2023/10/11 13:22:09;;;;;;;32.00;8.20;;;21.20;99.90;;;;;;5035387;28;20049;-54
2023/10/11 13:24:36;;;;;;;25.58;7.40;;;21.10;99.90;;;;;;5035539;28;20491;-56
2023/10/11 13:27:04;;;;;;;31.17;7.57;;;21.00;99.90;;;;;;5035663;28;20045;-56
2023/10/11 13:29:31;;;;;;;27.90;7.35;;;20.90;99.90;;;;;;5035505;28;20488;-58
2023/10/11 13:31:57;;;;;;;25.67;7.10;;;20.80;99.90;;;;;;5035320;28;20033;-58
2023/10/11 13:34:24;;;;;;;25.33;7.55;;;20.70;99.90;;;;;;5034522;28;20065;-52
2023/10/11 13:36:52;;;;;;;31.95;7.10;;;20.70;99.90;;;;;;5035301;28;20034;-54